Washington Grove, MD (20880)

2:00 PM EDT on April 01, 2015 (GMT -0400)
KMDGAITH12 | | Change Station
CLOSE
Current Station
Personal Weather Station
Location: Gaithersburg, MD
Elevation: 467 ft
Nearby Weather Stations

Elev 467 ft 39.16 °N, 77.18 °W | Updated 10 minutes ago

Clear
Clear
51.8 °F
Feels Like 51.8 °F
N
1.0
Wind Variable Wind from WSW
Gusts 9.0 mph

Today
High -- | Low -- °F
--% Chance of Precip.
Yesterday
High -- | Low -- °F
Precip. -- in
6:53 AM 7:32 PM
Waxing Gibbous, 93% visible
Pressure 30.19 in
Visibility 10.0 miles
Clouds Clear
Dew Point 29 °F
Humidity 41%
Rainfall 0.00 in
Snow Depth Not available.
UV 8 out of 12
Pollen 9.40 out of 12
Air Quality Not available.
Flu Activity Not available.
METAR KGAI 011755Z AUTO 30009G15KT 10SM CLR 11/M05 A3019 RMK AO1 10110 21010 54000

More Conditions Fewer Conditions

Pressure 30.19 in
Visibility 10.0 miles
Clouds Clear
Dew Point 29 °F
Humidity 41%
Rainfall 0.00 in
Snow Depth Not available.
UV 8 out of 12
Pollen 9.40 out of 12
Air Quality Not available.
Flu Activity Not available.
METAR KGAI 011755Z AUTO 30009G15KT 10SM CLR 11/M05 A3019 RMK AO1 10110 21010 54000

More Conditions Fewer Conditions

10-Day Weather Forecast

Almanac

Astronomy

Apr. 01, 2015 Rise Set
Actual Time
Civil Twilight
Nautical Twilight
Astronomical Twilight
Moon
Length of Visible Light
Length of Day
Tomorrow will be .
, % of the Moon is Illuminated

Today's Extremes

State Highs State Lows

Community

WunderPhotos

Upload Photos

1,810,032 photos uploaded!

WunderBlogs® & News

Nearby

Air Quality

  Air Quality AQ Index Pollutant
Not available.

Snow Depth

Station Depth Elevation

Earthquake Activity

City Distance Mag. Time & Date
Minimum magnitude displayed is 2.5.

Coastal Water Temperatures

Place Temperature

Stations

Nearby Weather Stations

Station Location Temp. Windchill Dew Point Humidity Wind Precip. Elev Updated Type